AFL2505 ULAA-ULLI
Flight info
| Callsign | AFL2505 |
|---|---|
| Flight time | N/A |
| Altitude | 36000 |
| Route | MAKOG T821 ROGID M856 GIKUR T458 BEPOL |
| Aircraft | B738/M-V/N |
Departure
| Time | 2026-04-28 17:12 |
|---|---|
| Airport | Talagi Airport (ULAA) |
Arrival
| Time | N/A |
|---|---|
| Airport | Pulkovo Airport (ULLI) |
| Time | Latitude | Longitude | Altitude | Speed | Heading |
|---|---|---|---|---|---|
| 2026-04-28 16:53 | 64.59682 | 40.71231 | 39 ft | 0 kts | 186° |
| 2026-04-28 17:01 | 64.59682 | 40.71230 | 39 ft | 4 kts | 188° |
| 2026-04-28 17:02 | 64.59708 | 40.71235 | 37 ft | 4 kts | 167° |
| 2026-04-28 17:02 | 64.59723 | 40.71221 | 39 ft | 4 kts | 132° |
| 2026-04-28 17:02 | 64.59731 | 40.71183 | 39 ft | 1 kts | 96° |
| 2026-04-28 17:04 | 64.59731 | 40.71185 | 39 ft | 1 kts | 96° |
| 2026-04-28 17:05 | 64.59766 | 40.71272 | 39 ft | 4 kts | 6° |
| 2026-04-28 17:05 | 64.59815 | 40.71294 | 39 ft | 5 kts | 26° |
| 2026-04-28 17:05 | 64.59829 | 40.71346 | 37 ft | 3 kts | 84° |
| 2026-04-28 17:06 | 64.59819 | 40.71614 | 39 ft | 16 kts | 95° |
| 2026-04-28 17:06 | 64.59804 | 40.71916 | 39 ft | 19 kts | 97° |
| 2026-04-28 17:06 | 64.59779 | 40.72416 | 39 ft | 18 kts | 94° |
| 2026-04-28 17:07 | 64.59766 | 40.72703 | 38 ft | 18 kts | 96° |
| 2026-04-28 17:07 | 64.59752 | 40.72981 | 39 ft | 17 kts | 96° |
| 2026-04-28 17:07 | 64.59750 | 40.73028 | 39 ft | 17 kts | 96° |
| 2026-04-28 17:08 | 64.59745 | 40.73127 | 39 ft | 17 kts | 96° |
| 2026-04-28 17:08 | 64.59732 | 40.73389 | 39 ft | 16 kts | 96° |
| 2026-04-28 17:08 | 64.59719 | 40.73640 | 39 ft | 15 kts | 100° |
| 2026-04-28 17:08 | 64.59700 | 40.73885 | 39 ft | 16 kts | 96° |
| 2026-04-28 17:09 | 64.59691 | 40.74115 | 39 ft | 7 kts | 84° |
| 2026-04-28 17:09 | 64.59708 | 40.74173 | 38 ft | 4 kts | 29° |
| 2026-04-28 17:09 | 64.59734 | 40.74190 | 39 ft | 4 kts | 8° |
| 2026-04-28 17:09 | 64.59760 | 40.74197 | 39 ft | 4 kts | 6° |
| 2026-04-28 17:10 | 64.59785 | 40.74203 | 39 ft | 4 kts | 6° |
| 2026-04-28 17:10 | 64.59823 | 40.74213 | 39 ft | 10 kts | 6° |
| 2026-04-28 17:10 | 64.59883 | 40.74215 | 36 ft | 5 kts | 338° |
| 2026-04-28 17:10 | 64.59906 | 40.74149 | 35 ft | 5 kts | 291° |
| 2026-04-28 17:11 | 64.59909 | 40.74106 | 34 ft | 0 kts | 277° |
| 2026-04-28 17:11 | 64.59910 | 40.74096 | 34 ft | 8 kts | 277° |
| 2026-04-28 17:11 | 64.59942 | 40.73410 | 33 ft | 76 kts | 276° |
| 2026-04-28 17:11 | 64.60026 | 40.71720 | 34 ft | 134 kts | 277° |
| 2026-04-28 17:12 | 64.60146 | 40.69226 | 208 ft | 167 kts | 276° |
| 2026-04-28 17:12 | 64.60283 | 40.66524 | 826 ft | 177 kts | 276° |
| 2026-04-28 17:12 | 64.60405 | 40.63544 | 1477 ft | 180 kts | 274° |
| 2026-04-28 17:12 | 64.60502 | 40.60723 | 2312 ft | 176 kts | 274° |
| 2026-04-28 17:13 | 64.60592 | 40.57673 | 2528 ft | 202 kts | 272° |
| 2026-04-28 17:13 | 64.60371 | 40.54345 | 2680 ft | 220 kts | 239° |
| 2026-04-28 17:13 | 64.59362 | 40.51510 | 2926 ft | 235 kts | 227° |
| 2026-04-28 17:13 | 64.58236 | 40.48699 | 3371 ft | 240 kts | 227° |
| 2026-04-28 17:14 | 64.57107 | 40.45810 | 3879 ft | 242 kts | 228° |
| 2026-04-28 17:14 | 64.55988 | 40.42873 | 4388 ft | 244 kts | 229° |
| 2026-04-28 17:14 | 64.54871 | 40.39886 | 4894 ft | 246 kts | 229° |
| 2026-04-28 17:14 | 64.53759 | 40.36861 | 5413 ft | 247 kts | 230° |
| 2026-04-28 17:15 | 64.52643 | 40.33793 | 5909 ft | 249 kts | 230° |
| 2026-04-28 17:15 | 64.51525 | 40.30696 | 6421 ft | 251 kts | 230° |
| 2026-04-28 17:15 | 64.50402 | 40.27566 | 6930 ft | 254 kts | 230° |
| 2026-04-28 17:15 | 64.49274 | 40.24410 | 7462 ft | 254 kts | 230° |
| 2026-04-28 17:16 | 64.48139 | 40.21230 | 7970 ft | 257 kts | 230° |
| 2026-04-28 17:16 | 64.46996 | 40.18021 | 8495 ft | 259 kts | 230° |
| 2026-04-28 17:16 | 64.45860 | 40.14832 | 9001 ft | 261 kts | 230° |
| 2026-04-28 17:16 | 64.44685 | 40.11533 | 9522 ft | 263 kts | 230° |
| 2026-04-28 17:17 | 64.43531 | 40.08295 | 10048 ft | 265 kts | 230° |
| 2026-04-28 17:17 | 64.42352 | 40.04987 | 10554 ft | 268 kts | 230° |
| 2026-04-28 17:17 | 64.41147 | 40.01613 | 11117 ft | 269 kts | 230° |
| 2026-04-28 17:17 | 64.39949 | 39.98259 | 11603 ft | 272 kts | 230° |
| 2026-04-28 17:18 | 64.38757 | 39.94927 | 12139 ft | 273 kts | 230° |
| 2026-04-28 17:18 | 64.37537 | 39.91523 | 12654 ft | 276 kts | 230° |
| 2026-04-28 17:18 | 64.36306 | 39.88092 | 13179 ft | 278 kts | 230° |
| 2026-04-28 17:18 | 64.35068 | 39.84647 | 13705 ft | 280 kts | 230° |
| 2026-04-28 17:19 | 64.33815 | 39.81165 | 14220 ft | 283 kts | 230° |
| 2026-04-28 17:19 | 64.32552 | 39.77659 | 14748 ft | 285 kts | 230° |
| 2026-04-28 17:19 | 64.31279 | 39.74133 | 15249 ft | 288 kts | 230° |
| 2026-04-28 17:19 | 64.29993 | 39.70577 | 15769 ft | 290 kts | 230° |
| 2026-04-28 17:20 | 64.28695 | 39.66992 | 16272 ft | 292 kts | 230° |
| 2026-04-28 17:20 | 64.27830 | 39.64605 | 16595 ft | 293 kts | 230° |
| 2026-04-28 17:20 | 64.26070 | 39.59760 | 17249 ft | 296 kts | 230° |
| 2026-04-28 17:20 | 64.24742 | 39.56111 | 17724 ft | 299 kts | 230° |
| 2026-04-28 17:21 | 64.23393 | 39.52408 | 17914 ft | 316 kts | 230° |
| 2026-04-28 17:21 | 64.21935 | 39.48415 | 18083 ft | 336 kts | 230° |
| 2026-04-28 17:21 | 64.20388 | 39.44186 | 18230 ft | 355 kts | 230° |
| 2026-04-28 17:22 | 64.17050 | 39.35088 | 18563 ft | 388 kts | 230° |
| 2026-04-28 17:22 | 64.15293 | 39.30313 | 19007 ft | 394 kts | 230° |
| 2026-04-28 17:22 | 64.13516 | 39.25494 | 19596 ft | 397 kts | 230° |
| 2026-04-28 17:23 | 64.09929 | 39.15792 | 20707 ft | 402 kts | 230° |
| 2026-04-28 17:23 | 64.08114 | 39.10900 | 21207 ft | 406 kts | 230° |
| 2026-04-28 17:23 | 64.06278 | 39.05967 | 21700 ft | 409 kts | 230° |
| 2026-04-28 17:23 | 64.04474 | 39.00919 | 22167 ft | 412 kts | 232° |
| 2026-04-28 17:24 | 64.02711 | 38.95737 | 22637 ft | 415 kts | 232° |
| 2026-04-28 17:24 | 64.00953 | 38.90488 | 23094 ft | 418 kts | 232° |
| 2026-04-28 17:24 | 63.99185 | 38.85205 | 23526 ft | 420 kts | 232° |
| 2026-04-28 17:24 | 63.97398 | 38.79895 | 23954 ft | 423 kts | 232° |
| 2026-04-28 17:25 | 63.95590 | 38.74559 | 24376 ft | 426 kts | 232° |
| 2026-04-28 17:25 | 63.91926 | 38.63842 | 25179 ft | 431 kts | 232° |
| 2026-04-28 17:25 | 63.90071 | 38.58451 | 25564 ft | 434 kts | 232° |
| 2026-04-28 17:26 | 63.88203 | 38.53036 | 25938 ft | 437 kts | 232° |
| 2026-04-28 17:26 | 63.86344 | 38.47664 | 26294 ft | 439 kts | 232° |
| 2026-04-28 17:26 | 63.84451 | 38.42207 | 26643 ft | 441 kts | 232° |
| 2026-04-28 17:26 | 63.82547 | 38.36729 | 26978 ft | 444 kts | 232° |
| 2026-04-28 17:27 | 63.80629 | 38.31225 | 27305 ft | 446 kts | 232° |
| 2026-04-28 17:27 | 63.78695 | 38.25690 | 27623 ft | 448 kts | 231° |
| 2026-04-28 17:27 | 63.76756 | 38.20151 | 27932 ft | 450 kts | 231° |
| 2026-04-28 17:27 | 63.74805 | 38.14592 | 28231 ft | 453 kts | 231° |
| 2026-04-28 17:28 | 63.72836 | 38.08997 | 28521 ft | 455 kts | 231° |
| 2026-04-28 17:28 | 63.68898 | 37.97848 | 29083 ft | 459 kts | 231° |
| 2026-04-28 17:28 | 63.66899 | 37.92210 | 29355 ft | 461 kts | 231° |
| 2026-04-28 17:29 | 63.64895 | 37.86569 | 29618 ft | 463 kts | 231° |
| 2026-04-28 17:29 | 63.62872 | 37.80892 | 29876 ft | 464 kts | 231° |
| 2026-04-28 17:29 | 63.60846 | 37.75220 | 30189 ft | 465 kts | 231° |
| 2026-04-28 17:30 | 63.56806 | 37.63951 | 30966 ft | 461 kts | 231° |
| 2026-04-28 17:30 | 63.52779 | 37.52777 | 31602 ft | 461 kts | 231° |
| 2026-04-28 17:30 | 63.50764 | 37.47204 | 31908 ft | 460 kts | 231° |
| 2026-04-28 17:31 | 63.48750 | 37.41648 | 32236 ft | 459 kts | 231° |
| 2026-04-28 17:31 | 63.44750 | 37.30648 | 32848 ft | 458 kts | 231° |
| 2026-04-28 17:32 | 63.40722 | 37.19634 | 33423 ft | 457 kts | 231° |
| 2026-04-28 17:32 | 63.38710 | 37.14157 | 33710 ft | 456 kts | 230° |
| 2026-04-28 17:32 | 63.36695 | 37.08688 | 33984 ft | 456 kts | 230° |
| 2026-04-28 17:32 | 63.34684 | 37.03239 | 34250 ft | 455 kts | 230° |
| 2026-04-28 17:33 | 63.32670 | 36.97794 | 34517 ft | 455 kts | 230° |
| 2026-04-28 17:33 | 63.30660 | 36.92371 | 34775 ft | 454 kts | 230° |
| 2026-04-28 17:33 | 63.28650 | 36.86958 | 35028 ft | 454 kts | 230° |
| 2026-04-28 17:33 | 63.27321 | 36.83385 | 35189 ft | 453 kts | 230° |
| 2026-04-28 17:34 | 63.24630 | 36.76167 | 35517 ft | 453 kts | 230° |
| 2026-04-28 17:34 | 63.22640 | 36.70849 | 35746 ft | 452 kts | 230° |
| 2026-04-28 17:34 | 63.20589 | 36.65559 | 35962 ft | 452 kts | 226° |
| 2026-04-28 17:34 | 63.18317 | 36.60730 | 35987 ft | 455 kts | 222° |
| 2026-04-28 17:35 | 63.13571 | 36.51451 | 36002 ft | 453 kts | 221° |
| 2026-04-28 17:35 | 63.08857 | 36.42288 | 36001 ft | 450 kts | 221° |
| 2026-04-28 17:36 | 63.04236 | 36.33188 | 36000 ft | 447 kts | 222° |
| 2026-04-28 17:36 | 62.99610 | 36.24065 | 36001 ft | 446 kts | 222° |
| 2026-04-28 17:37 | 62.94988 | 36.14987 | 36001 ft | 445 kts | 221° |
| 2026-04-28 17:37 | 62.90353 | 36.05928 | 36003 ft | 447 kts | 221° |
| 2026-04-28 17:38 | 62.85696 | 35.96849 | 36006 ft | 448 kts | 222° |
| 2026-04-28 17:38 | 62.81038 | 35.87707 | 36003 ft | 450 kts | 222° |
| 2026-04-28 17:39 | 62.76361 | 35.78543 | 36003 ft | 452 kts | 222° |